createdAt,value
2022-10-25T00:00:58.284Z,18.39
2022-10-25T00:03:26.851Z,18.18
2022-10-25T00:05:55.121Z,18.60
2022-10-25T00:08:23.340Z,18.14
2022-10-25T00:10:53.074Z,18.58
2022-10-25T00:13:21.303Z,18.39
2022-10-25T00:15:49.566Z,18.02
2022-10-25T00:18:17.861Z,18.09
2022-10-25T00:20:46.834Z,18.08
2022-10-25T00:23:15.179Z,18.06
2022-10-25T00:25:44.631Z,18.50
2022-10-25T00:28:14.304Z,18.37
2022-10-25T00:30:42.530Z,17.87
2022-10-25T00:33:10.771Z,18.69
2022-10-25T00:35:39.003Z,18.57
2022-10-25T00:38:07.314Z,18.52
2022-10-25T00:40:35.560Z,18.19
2022-10-25T00:43:03.846Z,17.81
2022-10-25T00:45:33.910Z,17.96
2022-10-25T00:48:05.758Z,17.97
2022-10-25T00:50:42.511Z,17.43
2022-10-25T00:53:18.477Z,17.97
2022-10-25T00:55:49.807Z,18.03
2022-10-25T00:58:20.755Z,18.37
2022-10-25T01:00:50.570Z,18.15
2022-10-25T01:03:20.692Z,18.19
2022-10-25T01:05:49.594Z,17.95
2022-10-25T01:08:18.984Z,18.37
2022-10-25T01:10:47.569Z,18.34
2022-10-25T01:13:15.823Z,18.38
2022-10-25T01:15:56.180Z,18.48
2022-10-25T01:18:31.442Z,18.83
2022-10-25T01:21:25.298Z,19.03
2022-10-25T01:24:09.832Z,19.02
2022-10-25T01:27:06.014Z,19.08
2022-10-25T01:30:00.486Z,19.10
2022-10-25T01:32:34.158Z,19.08
2022-10-25T01:35:08.246Z,18.93
2022-10-25T01:37:43.468Z,18.78
2022-10-25T01:40:18.689Z,18.50
2022-10-25T01:42:52.801Z,18.06
2022-10-25T01:45:23.069Z,16.56
2022-10-25T01:47:56.396Z,17.28
2022-10-25T01:50:27.867Z,17.58
2022-10-25T01:52:56.416Z,17.40
2022-10-25T01:55:28.486Z,18.09
2022-10-25T01:58:02.022Z,18.33
2022-10-25T02:00:32.550Z,18.30
2022-10-25T02:03:09.758Z,18.57
2022-10-25T02:05:50.456Z,18.35
2022-10-25T02:08:29.046Z,18.56
2022-10-25T02:11:03.102Z,18.53
2022-10-25T02:13:34.344Z,18.55
2022-10-25T02:16:05.464Z,18.41
2022-10-25T02:18:38.378Z,18.50
2022-10-25T02:21:07.430Z,18.34
2022-10-25T02:23:36.644Z,18.36
2022-10-25T02:26:06.693Z,18.49
2022-10-25T02:28:37.320Z,18.12
2022-10-25T02:31:05.543Z,17.98
2022-10-25T02:33:33.679Z,18.35
2022-10-25T02:36:14.329Z,18.62
2022-10-25T02:38:42.430Z,18.35
2022-10-25T02:41:10.695Z,18.18
2022-10-25T02:43:39.006Z,18.65
2022-10-25T02:46:09.785Z,18.69
2022-10-25T02:48:38.791Z,18.70
2022-10-25T02:51:07.501Z,18.88
2022-10-25T02:53:37.315Z,18.71
2022-10-25T02:56:07.375Z,18.48
2022-10-25T02:58:37.236Z,18.15
2022-10-25T03:01:06.874Z,18.29
2022-10-25T03:03:35.655Z,18.54
2022-10-25T03:06:04.659Z,18.92
2022-10-25T03:08:33.233Z,18.45
2022-10-25T03:11:02.976Z,18.25
2022-10-25T03:13:31.190Z,18.46
2022-10-25T03:15:59.686Z,18.77
2022-10-25T03:18:28.320Z,18.89
2022-10-25T03:20:58.101Z,18.74
2022-10-25T03:23:26.556Z,18.81
2022-10-25T03:25:54.897Z,18.62
2022-10-25T03:28:24.681Z,18.97
2022-10-25T03:30:52.841Z,18.26
2022-10-25T03:33:21.061Z,18.60
2022-10-25T03:35:51.811Z,18.98
2022-10-25T03:38:20.276Z,18.99
2022-10-25T03:40:48.602Z,18.94
2022-10-25T03:43:16.876Z,19.01
2022-10-25T03:45:46.638Z,18.93
2022-10-25T03:48:14.839Z,18.96
2022-10-25T03:50:43.114Z,18.85
2022-10-25T03:53:12.551Z,18.66
2022-10-25T03:55:40.798Z,18.47
2022-10-25T03:58:08.955Z,18.49
2022-10-25T04:00:37.290Z,18.46
2022-10-25T04:05:40.161Z,18.42
2022-10-25T04:08:08.421Z,18.69
2022-10-25T04:10:36.779Z,18.56
2022-10-25T04:13:05.002Z,18.45
2022-10-25T04:15:33.284Z,18.55
2022-10-25T04:18:01.471Z,18.54
2022-10-25T04:20:31.065Z,18.54
2022-10-25T04:22:59.486Z,18.36
2022-10-25T04:25:29.231Z,17.99
2022-10-25T04:27:59.566Z,17.30
2022-10-25T04:30:27.954Z,17.81
2022-10-25T04:32:57.980Z,18.13
2022-10-25T04:35:26.289Z,18.01
2022-10-25T04:37:58.531Z,18.60
2022-10-25T04:40:27.231Z,18.69
2022-10-25T04:42:55.468Z,18.48
2022-10-25T04:45:24.606Z,18.85
2022-10-25T04:47:52.769Z,18.64
2022-10-25T04:50:20.954Z,18.19
2022-10-25T04:52:49.383Z,17.33
2022-10-25T04:55:19.482Z,18.34
2022-10-25T04:57:47.709Z,18.31
2022-10-25T05:00:16.115Z,18.28
2022-10-25T05:02:44.403Z,18.46
2022-10-25T05:05:12.971Z,18.08
2022-10-25T05:07:41.155Z,18.16
2022-10-25T05:10:10.041Z,18.35
2022-10-25T05:12:39.977Z,17.77
2022-10-25T05:15:09.663Z,18.23
2022-10-25T05:17:38.165Z,18.25
2022-10-25T05:20:07.573Z,18.25
2022-10-25T05:22:35.757Z,18.44
2022-10-25T05:25:03.961Z,18.83
2022-10-25T05:27:32.164Z,18.64
2022-10-25T05:30:01.766Z,18.52
2022-10-25T05:32:31.302Z,18.68
2022-10-25T05:34:59.469Z,18.55
2022-10-25T05:37:27.649Z,18.86
2022-10-25T05:39:55.793Z,18.95
2022-10-25T05:42:24.100Z,18.79
2022-10-25T05:44:52.393Z,19.10
2022-10-25T05:47:21.949Z,19.31
2022-10-25T05:49:50.195Z,18.45
2022-10-25T05:52:18.365Z,19.04
2022-10-25T05:54:46.531Z,18.71
2022-10-25T05:57:14.783Z,18.84
2022-10-25T05:59:43.107Z,19.47
2022-10-25T06:02:12.158Z,19.32
2022-10-25T06:04:41.955Z,19.71
2022-10-25T06:07:10.213Z,19.75
2022-10-25T06:09:38.440Z,19.79
2022-10-25T06:12:09.493Z,19.67
2022-10-25T06:14:37.940Z,18.85
2022-10-25T06:17:06.165Z,20.02
2022-10-25T06:19:34.465Z,19.44
2022-10-25T06:22:04.149Z,19.74
2022-10-25T06:24:32.446Z,19.58
2022-10-25T06:27:00.714Z,19.12
2022-10-25T06:29:29.160Z,19.15
2022-10-25T06:31:57.509Z,19.37
2022-10-25T06:34:25.746Z,19.29
2022-10-25T06:36:54.023Z,19.38
2022-10-25T06:39:23.699Z,19.12
2022-10-25T06:41:51.954Z,18.74
2022-10-25T06:44:20.264Z,19.04
2022-10-25T06:47:18.434Z,18.52
2022-10-25T06:49:36.620Z,18.63
2022-10-25T06:52:04.891Z,18.78
2022-10-25T06:54:34.476Z,19.63
2022-10-25T06:57:02.673Z,19.25
2022-10-25T06:59:30.892Z,19.60
2022-10-25T07:01:59.208Z,19.62
2022-10-25T07:04:27.547Z,19.45
2022-10-25T07:06:55.734Z,19.89
2022-10-25T07:09:23.973Z,19.62
2022-10-25T07:11:53.507Z,19.24
2022-10-25T07:14:22.167Z,20.10
2022-10-25T07:16:50.509Z,20.42
2022-10-25T07:19:18.713Z,20.49
2022-10-25T07:21:46.940Z,20.21
2022-10-25T07:24:15.112Z,19.91
2022-10-25T07:26:43.437Z,19.70
2022-10-25T07:29:13.058Z,20.43
2022-10-25T07:31:43.184Z,20.67
2022-10-25T07:34:13.794Z,20.89
2022-10-25T07:36:41.829Z,20.30
2022-10-25T07:39:10.474Z,20.57
2022-10-25T07:41:38.795Z,20.81
2022-10-25T07:44:09.625Z,20.60
2022-10-25T07:46:42.788Z,21.12
2022-10-25T07:49:11.109Z,20.13
2022-10-25T07:51:39.378Z,20.65
2022-10-25T07:54:07.927Z,20.77
2022-10-25T07:56:36.214Z,20.70
2022-10-25T07:59:04.496Z,21.46
2022-10-25T08:01:32.765Z,21.97
2022-10-25T08:04:02.379Z,21.53
2022-10-25T08:06:30.596Z,21.47
2022-10-25T08:09:05.399Z,22.01
2022-10-25T08:11:43.398Z,21.39
2022-10-25T08:14:11.694Z,21.37
2022-10-25T08:16:39.987Z,22.01
2022-10-25T08:19:09.661Z,22.02
2022-10-25T08:21:37.962Z,22.32
2022-10-25T08:24:07.146Z,22.56
2022-10-25T08:26:37.014Z,22.42
2022-10-25T08:29:05.487Z,21.98
2022-10-25T08:31:33.760Z,22.57
2022-10-25T08:34:01.997Z,21.61
2022-10-25T08:36:31.607Z,22.25
2022-10-25T08:38:59.815Z,22.13
2022-10-25T08:41:34.302Z,23.01
2022-10-25T08:44:13.196Z,23.12
2022-10-25T08:46:44.761Z,22.69
2022-10-25T08:49:21.178Z,22.86
2022-10-25T08:51:51.645Z,23.11
2022-10-25T08:54:22.455Z,23.27
2022-10-25T08:57:10.711Z,22.15
2022-10-25T08:59:44.576Z,23.56
2022-10-25T09:02:18.962Z,23.65
2022-10-25T09:04:47.344Z,22.75
2022-10-25T09:07:37.391Z,22.79
2022-10-25T09:10:19.217Z,22.74
2022-10-25T09:12:56.482Z,22.49
2022-10-25T09:15:36.788Z,22.42
2022-10-25T09:18:15.818Z,22.24
2022-10-25T09:20:49.116Z,22.75
2022-10-25T09:23:25.327Z,23.45
2022-10-25T09:26:00.432Z,23.50
2022-10-25T09:28:39.171Z,22.71
2022-10-25T09:31:09.141Z,23.41
2022-10-25T09:33:37.402Z,23.08
2022-10-25T09:36:06.358Z,22.97
2022-10-25T09:38:40.088Z,23.93
2022-10-25T09:41:13.664Z,23.75
2022-10-25T09:43:46.215Z,23.32
2022-10-25T09:46:17.286Z,23.00
2022-10-25T09:48:51.737Z,23.27
2022-10-25T09:51:25.795Z,23.73
2022-10-25T09:53:56.357Z,23.68
2022-10-25T09:56:24.556Z,23.59
2022-10-25T09:58:52.826Z,23.90
2022-10-25T10:01:23.764Z,23.28
2022-10-25T10:03:54.833Z,23.54
2022-10-25T10:06:27.211Z,23.68
2022-10-25T10:09:01.704Z,23.91
2022-10-25T10:11:30.421Z,23.56
2022-10-25T10:14:04.967Z,23.96
2022-10-25T10:16:39.339Z,23.59
2022-10-25T10:19:16.490Z,23.86
2022-10-25T10:21:45.283Z,23.72
2022-10-25T10:24:18.857Z,23.82
2022-10-25T10:26:49.099Z,23.29
2022-10-25T10:29:21.134Z,23.89
2022-10-25T10:31:51.857Z,23.68
2022-10-25T10:34:28.087Z,24.03
2022-10-25T10:37:04.042Z,23.48
2022-10-25T10:39:33.662Z,23.66
2022-10-25T10:42:04.096Z,23.95
2022-10-25T10:44:34.517Z,23.80
2022-10-25T10:47:03.865Z,24.28
2022-10-25T10:49:36.141Z,24.13
2022-10-25T10:52:04.752Z,24.29
2022-10-25T10:54:35.819Z,24.50
2022-10-25T10:57:05.988Z,24.69
2022-10-25T10:59:37.636Z,24.75
2022-10-25T11:02:14.299Z,24.89
2022-10-25T11:04:49.980Z,24.36
2022-10-25T11:07:27.824Z,24.84
2022-10-25T11:10:34.809Z,24.78
2022-10-25T11:13:12.815Z,24.23
2022-10-25T11:16:01.446Z,25.58
2022-10-25T11:18:37.817Z,25.02
2022-10-25T11:21:12.655Z,25.72
2022-10-25T11:23:50.731Z,24.81
2022-10-25T11:26:24.296Z,25.54
2022-10-25T11:29:00.866Z,25.43
2022-10-25T11:31:35.556Z,25.87
2022-10-25T11:34:10.133Z,25.83
2022-10-25T11:36:57.494Z,25.80
2022-10-25T11:39:38.406Z,24.74
2022-10-25T11:42:20.722Z,25.73
2022-10-25T11:45:07.223Z,25.46
2022-10-25T11:47:43.435Z,25.32
2022-10-25T11:50:20.500Z,24.96
2022-10-25T11:53:04.156Z,25.53
2022-10-25T11:55:36.765Z,25.66
2022-10-25T11:58:16.619Z,25.42
2022-10-25T12:00:53.159Z,24.87
2022-10-25T12:03:32.193Z,25.19
2022-10-25T12:06:06.832Z,25.27
2022-10-25T12:08:41.441Z,25.26
2022-10-25T12:11:14.999Z,26.00
2022-10-25T12:13:48.214Z,26.10
2022-10-25T12:16:19.662Z,25.51
2022-10-25T12:18:49.709Z,26.71
2022-10-25T12:21:22.182Z,26.72
2022-10-25T12:23:52.813Z,25.82
2022-10-25T12:26:27.903Z,25.25
2022-10-25T12:28:58.170Z,25.83
2022-10-25T12:31:29.057Z,26.25
2022-10-25T12:34:02.283Z,26.01
2022-10-25T12:36:35.662Z,25.47
2022-10-25T12:39:08.261Z,25.43
2022-10-25T12:41:38.833Z,25.62
2022-10-25T12:44:16.606Z,26.44
2022-10-25T12:47:18.668Z,26.45
2022-10-25T12:49:59.193Z,26.33
2022-10-25T12:52:31.913Z,25.84
2022-10-25T12:55:08.541Z,26.02
2022-10-25T12:57:46.100Z,25.98
2022-10-25T13:00:18.331Z,26.11
2022-10-25T13:03:20.878Z,26.01
2022-10-25T13:05:59.961Z,25.67
2022-10-25T13:08:29.670Z,26.27
2022-10-25T13:10:59.541Z,26.68
2022-10-25T13:13:29.476Z,26.94
2022-10-25T13:15:59.752Z,26.90
2022-10-25T13:18:40.606Z,26.63
2022-10-25T13:21:10.346Z,26.95
2022-10-25T13:24:00.511Z,26.18
2022-10-25T13:26:32.021Z,27.35
2022-10-25T13:29:02.591Z,27.10
2022-10-25T13:31:49.190Z,26.51
2022-10-25T13:34:37.977Z,26.09
2022-10-25T13:37:11.339Z,26.71
2022-10-25T13:39:44.518Z,27.25
2022-10-25T13:42:24.319Z,27.52
2022-10-25T13:44:55.897Z,27.02
2022-10-25T13:47:32.872Z,27.13
2022-10-25T13:50:03.049Z,27.54
2022-10-25T13:52:33.443Z,27.21
2022-10-25T13:55:04.309Z,27.21
2022-10-25T13:57:51.085Z,27.68
2022-10-25T14:00:37.894Z,27.24
2022-10-25T14:06:24.800Z,27.39
2022-10-25T14:09:08.911Z,27.44
2022-10-25T14:11:40.913Z,27.32
2022-10-25T14:14:23.697Z,27.31
2022-10-25T14:17:10.531Z,27.52
2022-10-25T14:19:40.934Z,27.50
2022-10-25T14:22:14.432Z,27.40
2022-10-25T14:24:43.704Z,27.43
2022-10-25T14:27:29.309Z,27.62
2022-10-25T14:30:14.388Z,27.88
2022-10-25T14:32:50.582Z,27.89
2022-10-25T14:35:19.126Z,27.74
2022-10-25T14:37:48.709Z,27.83
2022-10-25T14:40:21.861Z,27.57
2022-10-25T14:42:50.545Z,27.61
2022-10-25T14:45:21.672Z,27.18
2022-10-25T14:47:49.888Z,27.27
2022-10-25T14:50:20.139Z,27.16
2022-10-25T14:52:51.140Z,27.40
2022-10-25T14:55:22.957Z,27.22
2022-10-25T14:57:51.321Z,26.96
2022-10-25T15:00:22.599Z,26.95
2022-10-25T15:02:55.283Z,27.14
2022-10-25T15:05:25.286Z,27.13
2022-10-25T15:07:57.996Z,26.95
2022-10-25T15:10:47.475Z,26.88
2022-10-25T15:13:17.867Z,26.93
2022-10-25T15:15:47.556Z,26.77
2022-10-25T15:18:35.015Z,26.98
2022-10-25T15:21:09.215Z,26.81
2022-10-25T15:23:39.538Z,26.71
2022-10-25T15:26:25.274Z,26.77
2022-10-25T15:28:55.489Z,26.66
2022-10-25T15:31:25.302Z,26.64
2022-10-25T15:33:58.111Z,26.59
2022-10-25T15:36:29.442Z,26.25
2022-10-25T15:39:11.624Z,25.86
2022-10-25T15:41:41.052Z,25.64
2022-10-25T15:44:09.357Z,25.60
2022-10-25T15:46:38.139Z,25.53
2022-10-25T15:49:08.591Z,25.53
2022-10-25T15:51:40.108Z,25.70
2022-10-25T15:54:14.663Z,25.57
2022-10-25T15:56:43.002Z,25.29
2022-10-25T15:59:11.455Z,25.21
2022-10-25T16:01:42.708Z,25.08
2022-10-25T16:04:15.060Z,25.04
2022-10-25T16:06:43.673Z,24.87
2022-10-25T16:09:13.260Z,24.74
2022-10-25T16:11:46.279Z,24.58
2022-10-25T16:14:19.977Z,24.53
2022-10-25T16:16:48.200Z,24.38
2022-10-25T16:19:17.885Z,24.33
2022-10-25T16:21:46.572Z,24.19
2022-10-25T16:24:16.124Z,24.10
2022-10-25T16:26:46.121Z,23.98
2022-10-25T16:29:15.979Z,23.82
2022-10-25T16:31:44.479Z,23.59
2022-10-25T16:34:15.391Z,23.32
2022-10-25T16:36:43.931Z,23.08
2022-10-25T16:39:12.607Z,22.84
2022-10-25T16:41:45.769Z,22.78
2022-10-25T16:44:16.249Z,22.62
2022-10-25T16:46:45.310Z,22.46
2022-10-25T16:49:13.822Z,22.39
2022-10-25T16:51:44.163Z,22.35
2022-10-25T16:54:12.936Z,22.32
2022-10-25T16:56:42.466Z,22.30
2022-10-25T16:59:10.657Z,22.14
2022-10-25T17:01:40.193Z,21.78
2022-10-25T17:04:10.823Z,21.64
2022-10-25T17:06:41.827Z,21.52
2022-10-25T17:09:10.728Z,21.58
2022-10-25T17:11:39.089Z,21.43
2022-10-25T17:14:09.611Z,21.17
2022-10-25T17:16:37.961Z,21.33
2022-10-25T17:19:06.191Z,21.23
2022-10-25T17:21:35.789Z,21.01
2022-10-25T17:24:04.509Z,20.82
2022-10-25T17:26:32.742Z,20.78
2022-10-25T17:29:01.131Z,21.01
2022-10-25T17:34:01.126Z,21.06
2022-10-25T17:36:31.703Z,21.06
2022-10-25T17:39:00.009Z,21.16
2022-10-25T17:41:28.204Z,20.75
2022-10-25T17:43:57.017Z,20.39
2022-10-25T17:46:26.835Z,19.91
2022-10-25T17:48:57.583Z,20.50
2022-10-25T17:51:25.920Z,20.42
2022-10-25T17:53:55.133Z,20.35
2022-10-25T17:56:25.359Z,20.41
2022-10-25T17:58:54.599Z,20.26
2022-10-25T18:01:24.649Z,20.35
2022-10-25T18:03:54.106Z,20.28
2022-10-25T18:06:25.670Z,20.27
2022-10-25T18:08:55.017Z,20.19
2022-10-25T18:11:24.470Z,20.16
2022-10-25T18:13:54.175Z,20.14
2022-10-25T18:16:25.894Z,20.08
2022-10-25T18:18:54.422Z,20.03
2022-10-25T18:21:24.170Z,20.02
2022-10-25T18:23:55.507Z,19.90
2022-10-25T18:26:25.013Z,19.79
2022-10-25T18:28:53.570Z,19.69
2022-10-25T18:31:22.490Z,19.67
2022-10-25T18:33:50.721Z,19.64
2022-10-25T18:36:21.707Z,19.65
2022-10-25T18:38:51.575Z,19.58
2022-10-25T18:41:21.894Z,19.59
2022-10-25T18:43:50.231Z,19.51
2022-10-25T18:46:18.983Z,19.54
2022-10-25T18:48:51.781Z,19.47
2022-10-25T18:51:20.983Z,19.40
2022-10-25T18:53:49.242Z,19.37
2022-10-25T18:56:21.251Z,19.45
2022-10-25T18:58:50.521Z,19.33
2022-10-25T19:01:22.608Z,19.28
2022-10-25T19:03:51.618Z,19.26
2022-10-25T19:06:20.385Z,19.08
2022-10-25T19:08:49.429Z,19.03
2022-10-25T19:11:19.197Z,18.95
2022-10-25T19:13:50.383Z,18.82
2022-10-25T19:16:19.687Z,18.81
2022-10-25T19:18:47.868Z,18.85
2022-10-25T19:21:18.367Z,18.87
2022-10-25T19:23:46.813Z,18.42
2022-10-25T19:26:16.963Z,18.31
2022-10-25T19:28:46.561Z,18.47
2022-10-25T19:31:15.957Z,18.40
2022-10-25T19:33:46.093Z,18.48
2022-10-25T19:36:14.336Z,18.46
2022-10-25T19:38:42.887Z,18.52
2022-10-25T19:41:14.691Z,18.56
2022-10-25T19:43:43.450Z,18.54
2022-10-25T19:46:13.939Z,18.57
2022-10-25T19:48:42.328Z,18.44
2022-10-25T19:51:11.907Z,18.50
2022-10-25T19:53:40.580Z,18.43
2022-10-25T19:56:10.438Z,18.44
2022-10-25T19:58:38.639Z,17.70
2022-10-25T20:01:09.230Z,18.15
2022-10-25T20:03:39.903Z,18.16
2022-10-25T20:06:10.169Z,18.25
2022-10-25T20:08:39.847Z,18.19
2022-10-25T20:11:09.329Z,18.26
2022-10-25T20:13:37.551Z,17.69
2022-10-25T20:16:06.435Z,17.95
2022-10-25T20:18:36.837Z,17.84
2022-10-25T20:21:08.410Z,17.95
2022-10-25T20:23:36.881Z,17.73
2022-10-25T20:26:13.116Z,17.78
2022-10-25T20:28:41.576Z,17.67
2022-10-25T20:31:10.212Z,17.73
2022-10-25T20:33:38.501Z,17.58
2022-10-25T20:36:09.900Z,17.24
2022-10-25T20:38:38.665Z,17.27
2022-10-25T20:41:08.936Z,17.44
2022-10-25T20:43:37.645Z,17.56
2022-10-25T20:46:06.766Z,17.64
2022-10-25T20:48:35.729Z,17.66
2022-10-25T20:51:07.607Z,17.67
2022-10-25T20:53:38.498Z,17.79
2022-10-25T20:56:07.328Z,17.76
2022-10-25T20:58:35.707Z,17.82
2022-10-25T21:01:04.161Z,17.76
2022-10-25T21:03:33.189Z,17.79
2022-10-25T21:06:04.436Z,17.83
2022-10-25T21:08:33.303Z,17.84
2022-10-25T21:11:04.125Z,17.92
2022-10-25T21:13:33.188Z,17.54
2022-10-25T21:16:06.476Z,17.41
2022-10-25T21:18:36.001Z,17.25
2022-10-25T21:21:06.250Z,17.19
2022-10-25T21:23:34.606Z,17.32
2022-10-25T21:26:05.363Z,17.49
2022-10-25T21:28:35.577Z,17.54
2022-10-25T21:31:04.785Z,17.55
2022-10-25T21:33:33.025Z,17.43
2022-10-25T21:36:05.898Z,17.52
2022-10-25T21:38:34.160Z,17.54
2022-10-25T21:41:11.584Z,17.63
2022-10-25T21:43:43.545Z,17.65
2022-10-25T21:46:12.278Z,17.63
2022-10-25T21:48:40.455Z,17.43
2022-10-25T21:51:09.216Z,17.54
2022-10-25T21:53:37.490Z,17.47
2022-10-25T21:56:07.046Z,17.23
2022-10-25T21:58:36.605Z,17.08
2022-10-25T22:01:08.274Z,16.85
2022-10-25T22:03:36.558Z,16.97
2022-10-25T22:06:06.613Z,17.39
2022-10-25T22:08:35.116Z,17.43
2022-10-25T22:11:05.687Z,17.48
2022-10-25T22:13:33.729Z,17.62
2022-10-25T22:16:05.568Z,17.49
2022-10-25T22:18:34.332Z,17.43
2022-10-25T22:21:05.016Z,17.39
2022-10-25T22:23:33.870Z,17.37
2022-10-25T22:26:06.965Z,17.37
2022-10-25T22:28:38.361Z,17.12
2022-10-25T22:31:11.726Z,17.00
2022-10-25T22:33:40.411Z,16.43
2022-10-25T22:36:10.802Z,16.95
2022-10-25T22:38:39.227Z,16.87
2022-10-25T22:41:10.376Z,16.83
2022-10-25T22:43:39.719Z,16.67
2022-10-25T22:46:11.352Z,16.51
2022-10-25T22:48:41.084Z,16.41
2022-10-25T22:51:10.192Z,15.99
2022-10-25T22:56:26.848Z,16.24
2022-10-25T22:58:56.520Z,15.95
2022-10-25T23:01:27.311Z,16.09
2022-10-25T23:03:56.841Z,16.35
2022-10-25T23:06:26.406Z,16.42
2022-10-25T23:08:55.189Z,16.75
2022-10-25T23:11:25.255Z,16.94
2022-10-25T23:13:53.755Z,16.98
2022-10-25T23:16:22.012Z,16.94
2022-10-25T23:18:51.976Z,17.00
2022-10-25T23:21:23.346Z,17.06
2022-10-25T23:23:52.313Z,17.17
2022-10-25T23:26:22.157Z,17.22
2022-10-25T23:28:50.524Z,17.07
2022-10-25T23:31:19.156Z,17.11
2022-10-25T23:33:53.060Z,17.05
2022-10-25T23:36:22.657Z,17.21
2022-10-25T23:38:51.808Z,17.28
2022-10-25T23:41:20.674Z,17.00
2022-10-25T23:43:49.186Z,17.02
2022-10-25T23:46:17.464Z,17.03
2022-10-25T23:48:45.794Z,17.06
2022-10-25T23:51:17.372Z,17.46
2022-10-25T23:53:46.528Z,17.35
2022-10-25T23:56:15.190Z,17.47
2022-10-25T23:58:43.642Z,17.40
